sensor_id;sensor_type;location;lat;lon;timestamp;P1;durP1;ratioP1;P2;durP2;ratioP2
48627;SDS011;34424;52.234;6.500;2023-06-22T00:02:26;13.4;;;10.4;;
48627;SDS011;34424;52.234;6.500;2023-06-22T00:07:26;11.9;;;10.5;;
48627;SDS011;34424;52.234;6.500;2023-06-22T00:12:26;12;;;10.4;;
48627;SDS011;34424;52.234;6.500;2023-06-22T00:17:26;12.6;;;10.9;;
48627;SDS011;34424;52.234;6.500;2023-06-22T00:22:27;13.7;;;10.7;;
48627;SDS011;34424;52.234;6.500;2023-06-22T00:27:27;12.2;;;10.2;;
48627;SDS011;34424;52.234;6.500;2023-06-22T00:32:27;12.7;;;11.3;;
48627;SDS011;34424;52.234;6.500;2023-06-22T00:37:27;14.3;;;11.6;;
48627;SDS011;34424;52.234;6.500;2023-06-22T00:42:27;14.1;;;12.5;;
48627;SDS011;34424;52.234;6.500;2023-06-22T00:47:27;12.8;;;10.9;;
48627;SDS011;34424;52.234;6.500;2023-06-22T00:52:27;13.4;;;11.3;;
48627;SDS011;34424;52.234;6.500;2023-06-22T00:57:27;13.7;;;11.6;;
48627;SDS011;34424;52.234;6.500;2023-06-22T01:02:27;13;;;11.3;;
48627;SDS011;34424;52.234;6.500;2023-06-22T01:07:28;14.6;;;12.9;;
48627;SDS011;34424;52.234;6.500;2023-06-22T01:12:27;15;;;12.7;;
48627;SDS011;34424;52.234;6.500;2023-06-22T01:17:27;16.2;;;12.8;;
48627;SDS011;34424;52.234;6.500;2023-06-22T01:22:28;15.6;;;12.8;;
48627;SDS011;34424;52.234;6.500;2023-06-22T01:27:31;17.8;;;12.8;;
48627;SDS011;34424;52.234;6.500;2023-06-22T01:32:27;15.9;;;13.7;;
48627;SDS011;34424;52.234;6.500;2023-06-22T01:37:27;16.4;;;13.4;;
48627;SDS011;34424;52.234;6.500;2023-06-22T01:42:27;16.7;;;13.5;;
48627;SDS011;34424;52.234;6.500;2023-06-22T01:47:27;17.9;;;14.5;;
48627;SDS011;34424;52.234;6.500;2023-06-22T01:52:27;16.2;;;14.5;;
48627;SDS011;34424;52.234;6.500;2023-06-22T01:57:27;19;;;15;;
48627;SDS011;34424;52.234;6.500;2023-06-22T02:02:28;18.1;;;14.9;;
48627;SDS011;34424;52.234;6.500;2023-06-22T02:07:28;18.1;;;15;;
48627;SDS011;34424;52.234;6.500;2023-06-22T02:12:27;21;;;17;;
48627;SDS011;34424;52.234;6.500;2023-06-22T02:17:27;19.9;;;16.8;;
48627;SDS011;34424;52.234;6.500;2023-06-22T02:22:27;19.9;;;16.2;;
48627;SDS011;34424;52.234;6.500;2023-06-22T02:27:27;21.9;;;18.5;;
48627;SDS011;34424;52.234;6.500;2023-06-22T02:32:27;23.2;;;18.9;;
48627;SDS011;34424;52.234;6.500;2023-06-22T02:37:27;24.9;;;19.9;;
48627;SDS011;34424;52.234;6.500;2023-06-22T02:42:27;27.8;;;21;;
48627;SDS011;34424;52.234;6.500;2023-06-22T02:47:27;28.7;;;21.8;;
48627;SDS011;34424;52.234;6.500;2023-06-22T02:52:27;29.2;;;22.2;;
48627;SDS011;34424;52.234;6.500;2023-06-22T02:57:27;27.4;;;23.5;;
48627;SDS011;34424;52.234;6.500;2023-06-22T03:02:27;30.5;;;24.5;;
48627;SDS011;34424;52.234;6.500;2023-06-22T03:07:27;33.9;;;26.1;;
48627;SDS011;34424;52.234;6.500;2023-06-22T03:12:27;39.4;;;29.6;;
48627;SDS011;34424;52.234;6.500;2023-06-22T03:17:27;39.7;;;29.7;;
48627;SDS011;34424;52.234;6.500;2023-06-22T03:22:27;40.7;;;31.4;;
48627;SDS011;34424;52.234;6.500;2023-06-22T03:27:27;44.1;;;33.8;;
48627;SDS011;34424;52.234;6.500;2023-06-22T03:32:27;46.4;;;35.3;;
48627;SDS011;34424;52.234;6.500;2023-06-22T03:37:27;52.3;;;36.8;;
48627;SDS011;34424;52.234;6.500;2023-06-22T03:42:27;54.9;;;40.3;;
48627;SDS011;34424;52.234;6.500;2023-06-22T03:47:27;55.2;;;41.5;;
48627;SDS011;34424;52.234;6.500;2023-06-22T03:52:27;56.3;;;43.4;;
48627;SDS011;34424;52.234;6.500;2023-06-22T03:57:27;56.3;;;41.6;;
48627;SDS011;34424;52.234;6.500;2023-06-22T04:02:27;62.7;;;44.7;;
48627;SDS011;34424;52.234;6.500;2023-06-22T04:07:27;62.9;;;46.9;;
48627;SDS011;34424;52.234;6.500;2023-06-22T04:12:27;59.5;;;44.6;;
48627;SDS011;34424;52.234;6.500;2023-06-22T04:17:27;62.5;;;46.4;;
48627;SDS011;34424;52.234;6.500;2023-06-22T04:22:27;64.8;;;47.9;;
48627;SDS011;34424;52.234;6.500;2023-06-22T04:27:27;65.5;;;48.6;;
48627;SDS011;34424;52.234;6.500;2023-06-22T04:32:27;66.9;;;48.3;;
48627;SDS011;34424;52.234;6.500;2023-06-22T04:37:27;63;;;47.9;;
48627;SDS011;34424;52.234;6.500;2023-06-22T04:42:28;66.9;;;48.4;;
48627;SDS011;34424;52.234;6.500;2023-06-22T04:47:28;65.4;;;48.2;;
48627;SDS011;34424;52.234;6.500;2023-06-22T04:52:28;60;;;44.9;;
48627;SDS011;34424;52.234;6.500;2023-06-22T04:57:28;56.4;;;43;;
48627;SDS011;34424;52.234;6.500;2023-06-22T05:02:28;42.8;;;37;;
48627;SDS011;34424;52.234;6.500;2023-06-22T05:07:28;39;;;32.4;;
48627;SDS011;34424;52.234;6.500;2023-06-22T05:12:29;35.5;;;30.8;;
48627;SDS011;34424;52.234;6.500;2023-06-22T05:17:28;32.7;;;28.8;;
48627;SDS011;34424;52.234;6.500;2023-06-22T05:22:29;31.9;;;27.5;;
48627;SDS011;34424;52.234;6.500;2023-06-22T05:27:29;29.5;;;26.3;;
48627;SDS011;34424;52.234;6.500;2023-06-22T05:32:29;27.8;;;24.4;;
48627;SDS011;34424;52.234;6.500;2023-06-22T05:37:30;26.3;;;23.6;;
48627;SDS011;34424;52.234;6.500;2023-06-22T05:42:30;24.2;;;21.7;;
48627;SDS011;34424;52.234;6.500;2023-06-22T05:47:30;24.1;;;21.7;;
48627;SDS011;34424;52.234;6.500;2023-06-22T05:52:31;22.8;;;20.5;;
48627;SDS011;34424;52.234;6.500;2023-06-22T05:57:31;20.2;;;18.1;;
48627;SDS011;34424;52.234;6.500;2023-06-22T06:02:31;20.1;;;17.8;;
48627;SDS011;34424;52.234;6.500;2023-06-22T06:07:32;18.8;;;16.6;;
48627;SDS011;34424;52.234;6.500;2023-06-22T06:12:32;18.1;;;16.3;;
48627;SDS011;34424;52.234;6.500;2023-06-22T06:17:33;17.2;;;15.4;;
48627;SDS011;34424;52.234;6.500;2023-06-22T06:22:33;16.5;;;14.7;;
48627;SDS011;34424;52.234;6.500;2023-06-22T06:27:34;15.7;;;14.2;;
48627;SDS011;34424;52.234;6.500;2023-06-22T06:32:34;16.3;;;14.6;;
48627;SDS011;34424;52.234;6.500;2023-06-22T06:37:35;15.3;;;13.7;;
48627;SDS011;34424;52.234;6.500;2023-06-22T06:42:35;14;;;12.6;;
48627;SDS011;34424;52.234;6.500;2023-06-22T06:47:36;14.2;;;12.7;;
48627;SDS011;34424;52.234;6.500;2023-06-22T06:52:36;12.1;;;10.9;;
48627;SDS011;34424;52.234;6.500;2023-06-22T06:57:37;12.4;;;10.7;;
48627;SDS011;34424;52.234;6.500;2023-06-22T07:02:37;12;;;10.8;;
48627;SDS011;34424;52.234;6.500;2023-06-22T07:07:38;11.9;;;10.5;;
48627;SDS011;34424;52.234;6.500;2023-06-22T07:12:38;11.4;;;10.3;;
48627;SDS011;34424;52.234;6.500;2023-06-22T07:17:39;12.3;;;11;;
48627;SDS011;34424;52.234;6.500;2023-06-22T07:22:40;12.8;;;11.2;;
48627;SDS011;34424;52.234;6.500;2023-06-22T07:27:42;12.4;;;9.6;;
48627;SDS011;34424;52.234;6.500;2023-06-22T07:32:41;11.3;;;9.7;;
48627;SDS011;34424;52.234;6.500;2023-06-22T07:37:41;12.5;;;10.4;;
48627;SDS011;34424;52.234;6.500;2023-06-22T07:42:42;10;;;9;;
48627;SDS011;34424;52.234;6.500;2023-06-22T07:47:43;11.3;;;10.1;;
48627;SDS011;34424;52.234;6.500;2023-06-22T07:52:43;11.5;;;10.4;;
48627;SDS011;34424;52.234;6.500;2023-06-22T07:57:46;11.6;;;10.5;;
48627;SDS011;34424;52.234;6.500;2023-06-22T08:02:45;12.6;;;11.1;;
48627;SDS011;34424;52.234;6.500;2023-06-22T08:07:46;12.7;;;11.4;;
48627;SDS011;34424;52.234;6.500;2023-06-22T08:12:46;12;;;10.8;;
48627;SDS011;34424;52.234;6.500;2023-06-22T08:17:47;12.1;;;10.9;;
48627;SDS011;34424;52.234;6.500;2023-06-22T08:22:48;11.2;;;10.2;;
48627;SDS011;34424;52.234;6.500;2023-06-22T08:27:48;12;;;10.8;;
48627;SDS011;34424;52.234;6.500;2023-06-22T08:32:49;12.5;;;11.2;;
48627;SDS011;34424;52.234;6.500;2023-06-22T08:37:50;11.5;;;10.4;;
48627;SDS011;34424;52.234;6.500;2023-06-22T08:42:50;12.6;;;11.1;;
48627;SDS011;34424;52.234;6.500;2023-06-22T08:47:51;11.1;;;9.9;;
48627;SDS011;34424;52.234;6.500;2023-06-22T08:52:52;11.2;;;10;;
48627;SDS011;34424;52.234;6.500;2023-06-22T08:57:52;11.5;;;10.4;;
48627;SDS011;34424;52.234;6.500;2023-06-22T09:02:53;11.8;;;10.5;;
48627;SDS011;34424;52.234;6.500;2023-06-22T09:07:55;11.2;;;10.1;;
48627;SDS011;34424;52.234;6.500;2023-06-22T09:12:55;11;;;9.3;;
48627;SDS011;34424;52.234;6.500;2023-06-22T09:17:55;11.1;;;10;;
48627;SDS011;34424;52.234;6.500;2023-06-22T09:22:56;10.7;;;9.7;;
48627;SDS011;34424;52.234;6.500;2023-06-22T09:27:57;11;;;9.3;;
48627;SDS011;34424;52.234;6.500;2023-06-22T09:32:57;8.9;;;8;;
48627;SDS011;34424;52.234;6.500;2023-06-22T09:37:58;9.3;;;8.2;;
48627;SDS011;34424;52.234;6.500;2023-06-22T09:42:59;8.8;;;6.7;;
48627;SDS011;34424;52.234;6.500;2023-06-22T09:47:59;7.9;;;7.1;;
48627;SDS011;34424;52.234;6.500;2023-06-22T09:53:00;10;;;7.9;;
48627;SDS011;34424;52.234;6.500;2023-06-22T09:58:01;8.1;;;7.3;;
48627;SDS011;34424;52.234;6.500;2023-06-22T10:03:01;7.8;;;7.1;;
48627;SDS011;34424;52.234;6.500;2023-06-22T10:08:02;7.9;;;7.1;;
48627;SDS011;34424;52.234;6.500;2023-06-22T10:13:03;8.2;;;7.3;;
48627;SDS011;34424;52.234;6.500;2023-06-22T10:18:03;8;;;7.2;;
48627;SDS011;34424;52.234;6.500;2023-06-22T10:23:03;8.6;;;7.7;;
48627;SDS011;34424;52.234;6.500;2023-06-22T10:28:04;8.5;;;7.6;;
48627;SDS011;34424;52.234;6.500;2023-06-22T10:33:04;8.1;;;7;;
48627;SDS011;34424;52.234;6.500;2023-06-22T10:38:05;8.4;;;7.5;;
48627;SDS011;34424;52.234;6.500;2023-06-22T10:43:05;9.9;;;8;;
48627;SDS011;34424;52.234;6.500;2023-06-22T10:48:05;8.6;;;7.8;;
48627;SDS011;34424;52.234;6.500;2023-06-22T10:53:06;8.6;;;7.7;;
48627;SDS011;34424;52.234;6.500;2023-06-22T10:58:06;9.9;;;7.9;;
48627;SDS011;34424;52.234;6.500;2023-06-22T11:03:07;7.8;;;7;;
48627;SDS011;34424;52.234;6.500;2023-06-22T11:08:07;8;;;7.1;;
48627;SDS011;34424;52.234;6.500;2023-06-22T11:13:08;7.5;;;6.8;;
48627;SDS011;34424;52.234;6.500;2023-06-22T11:18:08;8.2;;;7.3;;
48627;SDS011;34424;52.234;6.500;2023-06-22T11:23:09;8.1;;;6.9;;
48627;SDS011;34424;52.234;6.500;2023-06-22T11:28:09;8.4;;;7.2;;
48627;SDS011;34424;52.234;6.500;2023-06-22T11:33:09;7.8;;;6.6;;
48627;SDS011;34424;52.234;6.500;2023-06-22T11:38:10;7.4;;;6.7;;
48627;SDS011;34424;52.234;6.500;2023-06-22T11:43:10;11;;;7.4;;
48627;SDS011;34424;52.234;6.500;2023-06-22T11:48:11;7.6;;;6.8;;
48627;SDS011;34424;52.234;6.500;2023-06-22T11:53:11;9.5;;;7.2;;
48627;SDS011;34424;52.234;6.500;2023-06-22T11:58:12;9.1;;;8.2;;
48627;SDS011;34424;52.234;6.500;2023-06-22T12:03:12;8;;;7.2;;
48627;SDS011;34424;52.234;6.500;2023-06-22T12:08:13;10.2;;;8.2;;
48627;SDS011;34424;52.234;6.500;2023-06-22T12:13:13;11.2;;;9.4;;
48627;SDS011;34424;52.234;6.500;2023-06-22T12:18:14;9.9;;;8.9;;
48627;SDS011;34424;52.234;6.500;2023-06-22T12:23:14;9.6;;;8.3;;
48627;SDS011;34424;52.234;6.500;2023-06-22T12:28:14;11.8;;;9.8;;
48627;SDS011;34424;52.234;6.500;2023-06-22T12:33:15;9.5;;;8.6;;
48627;SDS011;34424;52.234;6.500;2023-06-22T12:38:15;12.1;;;10.8;;
48627;SDS011;34424;52.234;6.500;2023-06-22T12:43:15;13.8;;;11.2;;
48627;SDS011;34424;52.234;6.500;2023-06-22T12:48:16;13.4;;;12;;
48627;SDS011;34424;52.234;6.500;2023-06-22T12:53:16;14.6;;;13.2;;
48627;SDS011;34424;52.234;6.500;2023-06-22T12:58:16;14.9;;;13.3;;
48627;SDS011;34424;52.234;6.500;2023-06-22T13:03:17;16.4;;;13.2;;
48627;SDS011;34424;52.234;6.500;2023-06-22T13:08:17;17.2;;;15.2;;
48627;SDS011;34424;52.234;6.500;2023-06-22T13:13:17;18.1;;;16.3;;
48627;SDS011;34424;52.234;6.500;2023-06-22T13:18:17;18.5;;;16.7;;
48627;SDS011;34424;52.234;6.500;2023-06-22T13:23:18;20.1;;;18;;
48627;SDS011;34424;52.234;6.500;2023-06-22T13:28:18;20.5;;;18.5;;
48627;SDS011;34424;52.234;6.500;2023-06-22T13:33:18;21;;;18.9;;
48627;SDS011;34424;52.234;6.500;2023-06-22T13:38:18;22.5;;;20.3;;
48627;SDS011;34424;52.234;6.500;2023-06-22T13:43:19;23.4;;;21;;
48627;SDS011;34424;52.234;6.500;2023-06-22T13:48:19;24;;;21.6;;
48627;SDS011;34424;52.234;6.500;2023-06-22T13:53:19;26.9;;;24.1;;
48627;SDS011;34424;52.234;6.500;2023-06-22T13:58:19;26.4;;;23.7;;
48627;SDS011;34424;52.234;6.500;2023-06-22T14:03:19;27.8;;;24.8;;
48627;SDS011;34424;52.234;6.500;2023-06-22T14:08:20;27.5;;;24.8;;
48627;SDS011;34424;52.234;6.500;2023-06-22T14:13:20;29.3;;;26.3;;
48627;SDS011;34424;52.234;6.500;2023-06-22T14:18:20;30.8;;;26.6;;
48627;SDS011;34424;52.234;6.500;2023-06-22T14:23:20;31.5;;;27.6;;
48627;SDS011;34424;52.234;6.500;2023-06-22T14:28:20;31.1;;;27.8;;
48627;SDS011;34424;52.234;6.500;2023-06-22T14:33:20;26;;;23.2;;
48627;SDS011;34424;52.234;6.500;2023-06-22T14:38:21;29.5;;;25.6;;
48627;SDS011;34424;52.234;6.500;2023-06-22T14:43:21;26.9;;;24.2;;
48627;SDS011;34424;52.234;6.500;2023-06-22T14:48:21;27.7;;;24.4;;
48627;SDS011;34424;52.234;6.500;2023-06-22T14:53:21;28.1;;;24.8;;
48627;SDS011;34424;52.234;6.500;2023-06-22T14:58:21;27.7;;;24.9;;
48627;SDS011;34424;52.234;6.500;2023-06-22T15:03:21;28.8;;;25.5;;
48627;SDS011;34424;52.234;6.500;2023-06-22T15:08:22;27.3;;;24.5;;
48627;SDS011;34424;52.234;6.500;2023-06-22T15:13:22;25.8;;;23.3;;
48627;SDS011;34424;52.234;6.500;2023-06-22T15:18:22;26.3;;;23.5;;
48627;SDS011;34424;52.234;6.500;2023-06-22T15:23:22;26;;;23.2;;
48627;SDS011;34424;52.234;6.500;2023-06-22T15:28:22;26.3;;;23.5;;
48627;SDS011;34424;52.234;6.500;2023-06-22T15:33:23;25.1;;;22.5;;
48627;SDS011;34424;52.234;6.500;2023-06-22T15:38:23;25.9;;;23.1;;
48627;SDS011;34424;52.234;6.500;2023-06-22T15:43:23;26.1;;;23.3;;
48627;SDS011;34424;52.234;6.500;2023-06-22T15:48:23;27.4;;;24.4;;
48627;SDS011;34424;52.234;6.500;2023-06-22T15:53:23;24.8;;;22.2;;
48627;SDS011;34424;52.234;6.500;2023-06-22T15:58:23;28.7;;;24.7;;
48627;SDS011;34424;52.234;6.500;2023-06-22T16:03:23;30.3;;;26.8;;
48627;SDS011;34424;52.234;6.500;2023-06-22T16:08:24;30.2;;;25.6;;
48627;SDS011;34424;52.234;6.500;2023-06-22T16:13:24;27.8;;;24.8;;
48627;SDS011;34424;52.234;6.500;2023-06-22T16:18:24;31.6;;;28.2;;
48627;SDS011;34424;52.234;6.500;2023-06-22T16:23:24;32.4;;;28.9;;
48627;SDS011;34424;52.234;6.500;2023-06-22T16:28:24;37.8;;;30.6;;
48627;SDS011;34424;52.234;6.500;2023-06-22T16:33:24;34.4;;;29.8;;
48627;SDS011;34424;52.234;6.500;2023-06-22T16:38:24;35.9;;;31.3;;
48627;SDS011;34424;52.234;6.500;2023-06-22T16:43:24;40.9;;;32.7;;
48627;SDS011;34424;52.234;6.500;2023-06-22T16:48:24;42.7;;;33.3;;
48627;SDS011;34424;52.234;6.500;2023-06-22T16:53:25;41;;;32.8;;
48627;SDS011;34424;52.234;6.500;2023-06-22T16:58:25;40.7;;;32.2;;
48627;SDS011;34424;52.234;6.500;2023-06-22T17:03:26;39.6;;;32.2;;
48627;SDS011;34424;52.234;6.500;2023-06-22T17:08:25;40.3;;;32.3;;
48627;SDS011;34424;52.234;6.500;2023-06-22T17:13:25;44;;;34.2;;
48627;SDS011;34424;52.234;6.500;2023-06-22T17:18:25;41.4;;;32.5;;
48627;SDS011;34424;52.234;6.500;2023-06-22T17:23:26;45;;;34.4;;
48627;SDS011;34424;52.234;6.500;2023-06-22T17:28:25;50.9;;;35.9;;
48627;SDS011;34424;52.234;6.500;2023-06-22T17:33:25;47;;;35.4;;
48627;SDS011;34424;52.234;6.500;2023-06-22T17:38:25;45.3;;;34.7;;
48627;SDS011;34424;52.234;6.500;2023-06-22T17:43:25;42.4;;;33.1;;
48627;SDS011;34424;52.234;6.500;2023-06-22T17:48:25;47;;;32.7;;
48627;SDS011;34424;52.234;6.500;2023-06-22T17:53:26;44.1;;;32.6;;
48627;SDS011;34424;52.234;6.500;2023-06-22T17:58:26;44.6;;;32;;
48627;SDS011;34424;52.234;6.500;2023-06-22T18:03:26;46.3;;;32.3;;
48627;SDS011;34424;52.234;6.500;2023-06-22T18:08:26;44.8;;;30.6;;
48627;SDS011;34424;52.234;6.500;2023-06-22T18:13:26;46.6;;;31.7;;
48627;SDS011;34424;52.234;6.500;2023-06-22T18:18:26;39.8;;;30.8;;
48627;SDS011;34424;52.234;6.500;2023-06-22T18:23:26;41.2;;;29.3;;
48627;SDS011;34424;52.234;6.500;2023-06-22T18:28:26;41.1;;;27.1;;
48627;SDS011;34424;52.234;6.500;2023-06-22T18:33:26;32;;;24.7;;
48627;SDS011;34424;52.234;6.500;2023-06-22T18:38:26;28.5;;;22.4;;
48627;SDS011;34424;52.234;6.500;2023-06-22T18:43:26;27.5;;;21.6;;
48627;SDS011;34424;52.234;6.500;2023-06-22T18:48:26;27;;;20.8;;
48627;SDS011;34424;52.234;6.500;2023-06-22T18:53:28;23.9;;;19.6;;
48627;SDS011;34424;52.234;6.500;2023-06-22T18:58:26;23.6;;;18.8;;
48627;SDS011;34424;52.234;6.500;2023-06-22T19:03:32;23.3;;;17;;
48627;SDS011;34424;52.234;6.500;2023-06-22T19:08:26;17.3;;;14.2;;
48627;SDS011;34424;52.234;6.500;2023-06-22T19:13:30;16.6;;;11.5;;
48627;SDS011;34424;52.234;6.500;2023-06-22T19:18:28;11.5;;;9.6;;
48627;SDS011;34424;52.234;6.500;2023-06-22T19:23:28;13.1;;;8.9;;
48627;SDS011;34424;52.234;6.500;2023-06-22T19:28:27;12.1;;;8.3;;
48627;SDS011;34424;52.234;6.500;2023-06-22T19:33:26;12.3;;;8.8;;
48627;SDS011;34424;52.234;6.500;2023-06-22T19:38:27;12.1;;;8.9;;
48627;SDS011;34424;52.234;6.500;2023-06-22T19:43:27;12.2;;;9;;
48627;SDS011;34424;52.234;6.500;2023-06-22T19:48:27;11.7;;;9.2;;
48627;SDS011;34424;52.234;6.500;2023-06-22T19:53:26;11.8;;;8.6;;
48627;SDS011;34424;52.234;6.500;2023-06-22T19:58:26;12.4;;;9;;
48627;SDS011;34424;52.234;6.500;2023-06-22T20:03:29;10;;;7.7;;
48627;SDS011;34424;52.234;6.500;2023-06-22T20:08:26;10.5;;;8.2;;
48627;SDS011;34424;52.234;6.500;2023-06-22T20:13:26;7.7;;;6.8;;
48627;SDS011;34424;52.234;6.500;2023-06-22T20:18:26;9.1;;;6.8;;
48627;SDS011;34424;52.234;6.500;2023-06-22T20:23:27;10.3;;;7.1;;
48627;SDS011;34424;52.234;6.500;2023-06-22T20:28:26;8.8;;;6.8;;
48627;SDS011;34424;52.234;6.500;2023-06-22T20:33:26;9.3;;;6.9;;
48627;SDS011;34424;52.234;6.500;2023-06-22T20:38:26;11.3;;;8.1;;
48627;SDS011;34424;52.234;6.500;2023-06-22T20:43:26;13.3;;;8.1;;
48627;SDS011;34424;52.234;6.500;2023-06-22T20:48:26;9.5;;;7.5;;
48627;SDS011;34424;52.234;6.500;2023-06-22T20:53:26;10;;;8;;
48627;SDS011;34424;52.234;6.500;2023-06-22T20:58:26;11.5;;;7.6;;
48627;SDS011;34424;52.234;6.500;2023-06-22T21:03:26;9.5;;;7.8;;
48627;SDS011;34424;52.234;6.500;2023-06-22T21:08:26;7.9;;;7.1;;
48627;SDS011;34424;52.234;6.500;2023-06-22T21:13:26;9.5;;;7.1;;
48627;SDS011;34424;52.234;6.500;2023-06-22T21:18:26;9;;;7;;
48627;SDS011;34424;52.234;6.500;2023-06-22T21:23:26;9.5;;;7.7;;
48627;SDS011;34424;52.234;6.500;2023-06-22T21:28:26;10.3;;;7.8;;
48627;SDS011;34424;52.234;6.500;2023-06-22T21:33:26;11.6;;;8.3;;
48627;SDS011;34424;52.234;6.500;2023-06-22T21:38:26;12.6;;;8.9;;
48627;SDS011;34424;52.234;6.500;2023-06-22T21:43:26;16.2;;;10.8;;
48627;SDS011;34424;52.234;6.500;2023-06-22T21:48:26;15.7;;;10.7;;
48627;SDS011;34424;52.234;6.500;2023-06-22T21:53:26;15;;;10.5;;
48627;SDS011;34424;52.234;6.500;2023-06-22T21:58:26;15.3;;;11.1;;
48627;SDS011;34424;52.234;6.500;2023-06-22T22:03:26;19.2;;;11.9;;
48627;SDS011;34424;52.234;6.500;2023-06-22T22:08:26;18.2;;;12;;
48627;SDS011;34424;52.234;6.500;2023-06-22T22:13:26;18.9;;;12.9;;
48627;SDS011;34424;52.234;6.500;2023-06-22T22:18:26;23.5;;;14.5;;
48627;SDS011;34424;52.234;6.500;2023-06-22T22:23:26;20.1;;;13.7;;
48627;SDS011;34424;52.234;6.500;2023-06-22T22:28:26;22.4;;;15;;
48627;SDS011;34424;52.234;6.500;2023-06-22T22:33:26;20.9;;;14.4;;
48627;SDS011;34424;52.234;6.500;2023-06-22T22:38:26;20.5;;;14.5;;
48627;SDS011;34424;52.234;6.500;2023-06-22T22:43:26;22.5;;;14.4;;
48627;SDS011;34424;52.234;6.500;2023-06-22T22:48:26;20;;;14.7;;
48627;SDS011;34424;52.234;6.500;2023-06-22T22:53:26;20.9;;;14;;
48627;SDS011;34424;52.234;6.500;2023-06-22T22:58:25;19.3;;;12.8;;
48627;SDS011;34424;52.234;6.500;2023-06-22T23:03:25;19.7;;;13.2;;
48627;SDS011;34424;52.234;6.500;2023-06-22T23:08:25;19.8;;;14;;
48627;SDS011;34424;52.234;6.500;2023-06-22T23:13:25;19;;;13.1;;
48627;SDS011;34424;52.234;6.500;2023-06-22T23:18:25;16.6;;;13.4;;
48627;SDS011;34424;52.234;6.500;2023-06-22T23:23:25;17.2;;;12.6;;
48627;SDS011;34424;52.234;6.500;2023-06-22T23:28:25;15.5;;;12.5;;
48627;SDS011;34424;52.234;6.500;2023-06-22T23:33:25;16.6;;;11.5;;
48627;SDS011;34424;52.234;6.500;2023-06-22T23:38:25;16.8;;;11.9;;
48627;SDS011;34424;52.234;6.500;2023-06-22T23:43:25;19.6;;;13.2;;
48627;SDS011;34424;52.234;6.500;2023-06-22T23:48:25;15.9;;;11.4;;
48627;SDS011;34424;52.234;6.500;2023-06-22T23:53:25;16.9;;;11.9;;
48627;SDS011;34424;52.234;6.500;2023-06-22T23:58:25;16.6;;;11.4;;
